Terminal Aerodrome Forecast
Issued by NWS Pocatello, ID

Home | Current Version | Previous Version | Text Only | Print | Product List | Glossary On
Versions: 1 2 3 4 5 6 7 8 9 10 11 12 13 14 15
000
FTUS45 KPIH 220500
TAFPIH
TAF
KPIH 220520Z 2206/2306 VRB06KT P6SM VCTS SCT070 SCT120CB
     FM220700 19012KT P6SM -SHRA VCTS SCT030 BKN060CB
     FM221800 24013KT P6SM -SHRA VCTS SCT050 BKN070CB
     FM230200 VRB06KT P6SM SCT120 BKN150=

USA.gov is the U.S. government's official web portal to all federal, state and local government web resources and services.